Time;durP1;ratioP1;P1;durP2;ratioP2;P2;SDS_P1;SDS_P2;PMS_P1;PMS_P2;Temp;Humidity;BMP_temperature;BMP_pressure;BME280_temperature;BME280_humidity;BME280_pressure;Samples;Min_cycle;Max_cycle;Signal;HPM_P1;HPM_P2
2022/03/16 00:01:09;;;;;;;;;;;;;;;;;;5113707;28;19916;-72
2022/03/16 00:03:35;;;;;;;;;;;;;;;;;;5113032;28;19923;-72
2022/03/16 00:06:00;;;;;;;;;;;;;;;;;;5114060;28;20027;-72
2022/03/16 00:08:28;;;;;;;;;;;;;;;;;;5114346;28;19923;-72
2022/03/16 00:10:54;;;;;;;;;;;;;;;;;;5112651;28;19922;-72
2022/03/16 00:13:19;;;;;;;;;;;;;;;;;;5113138;28;19920;-72
2022/03/16 00:15:45;;;;;;;;;;;;;;;;;;5112635;28;20030;-72
2022/03/16 00:18:12;;;;;;;;;;;;;;;;;;5114022;28;19915;-72
2022/03/16 00:20:37;;;;;;;;;;;;;;;;;;5114239;28;19919;-72
2022/03/16 00:23:03;;;;;;;;;;;;;;;;;;5114178;28;19916;-72
2022/03/16 00:25:28;;;;;;;;;;;;;;;;;;5113850;28;20258;-72
2022/03/16 00:27:53;;;;;;;;;;;;;;;;;;5112654;28;19980;-72
2022/03/16 00:30:18;;;;;;;;;;;;;;;;;;5113701;28;20060;-72
2022/03/16 00:32:44;;;;;;;;;;;;;;;;;;5113916;28;19919;-72
2022/03/16 00:35:09;;;;;;;;;;;;;;;;;;5112946;28;19955;-72
2022/03/16 00:37:34;;;;;;;;;;;;;;;;;;5112674;28;19916;-72
2022/03/16 00:40:00;;;;;;;;;;;;;;;;;;5112815;28;20369;-72
2022/03/16 00:42:25;;;;;;;;;;;;;;;;;;5112365;28;20277;-72
2022/03/16 00:44:51;;;;;;;;;;;;;;;;;;5113296;28;19965;-72
2022/03/16 00:47:16;;;;;;;;;;;;;;;;;;5111528;28;19919;-73
2022/03/16 00:49:42;;;;;;;;;;;;;;;;;;5112234;28;19951;-72
2022/03/16 00:52:08;;;;;;;;;;;;;;;;;;5113737;28;19924;-72
2022/03/16 00:54:33;;;;;;;;;;;;;;;;;;5112560;28;19922;-72
2022/03/16 00:57:01;;;;;;;;;;;;;;;;;;5113783;28;20006;-73
2022/03/16 00:59:26;;;;;;;;;;;;;;;;;;5112312;28;20411;-72
2022/03/16 01:01:52;;;;;;;;;;;;;;;;;;5112529;28;19915;-72
2022/03/16 01:04:17;;;;;;;;;;;;;;;;;;5113848;28;19926;-72
2022/03/16 01:06:42;;;;;;;;;;;;;;;;;;5112059;28;20326;-72
2022/03/16 01:09:08;;;;;;;;;;;;;;;;;;5113495;28;20475;-72
2022/03/16 01:11:33;;;;;;;;;;;;;;;;;;5111476;28;20123;-73
2022/03/16 01:14:00;;;;;;;;;;;;;;;;;;5113512;28;19916;-72
2022/03/16 01:16:25;;;;;;;;;;;;;;;;;;5117137;28;20340;-72
2022/03/16 01:18:50;;;;;;;;;;;;;;;;;;5116047;28;19916;-72
2022/03/16 01:21:19;;;;;;;;;;;;;;;;;;5116022;28;19916;-72
2022/03/16 01:23:44;;;;;;;;;;;;;;;;;;5116957;28;20289;-73
2022/03/16 01:26:09;;;;;;;;;;;;;;;;;;5117100;28;19916;-73
2022/03/16 01:28:35;;;;;;;;;;;;;;;;;;5115520;28;19923;-73
2022/03/16 01:31:01;;;;;;;;;;;;;;;;;;5116918;28;19920;-72
2022/03/16 01:33:27;;;;;;;;;;;;;;;;;;5115754;28;20012;-72
2022/03/16 01:35:52;;;;;;;;;;;;;;;;;;5117115;27;19954;-72
2022/03/16 01:38:18;;;;;;;;;;;;;;;;;;5116906;28;19959;-72
2022/03/16 01:40:43;;;;;;;;;;;;;;;;;;5115708;28;19912;-72
2022/03/16 01:43:08;;;;;;;;;;;;;;;;;;5114818;28;19915;-72
2022/03/16 01:45:34;;;;;;;;;;;;;;;;;;5116728;28;19923;-72
2022/03/16 01:48:00;;;;;;;;;;;;;;;;;;5116353;28;19958;-72
2022/03/16 01:50:25;;;;;;;;;;;;;;;;;;5115354;28;20319;-72
2022/03/16 01:52:51;;;;;;;;;;;;;;;;;;5116408;28;19920;-72
2022/03/16 01:55:17;;;;;;;;;;;;;;;;;;5115252;28;19985;-72
2022/03/16 01:57:46;;;;;;;;;;;;;;;;;;5116122;28;19916;-72
2022/03/16 02:00:13;;;;;;;;;;;;;;;;;;5114658;28;20019;-73
2022/03/16 02:02:40;;;;;;;;;;;;;;;;;;5098281;28;19965;-72
2022/03/16 02:05:05;;;;;;;;;;;;;;;;;;5115418;28;19916;-72
2022/03/16 02:07:30;;;;;;;;;;;;;;;;;;5108793;28;19947;-72
2022/03/16 02:09:59;;;;;;;;;;;;;;;;;;5110310;28;19966;-72
2022/03/16 02:12:24;;;;;;;;;;;;;;;;;;5095775;28;19970;-72
2022/03/16 02:14:51;;;;;;;;;;;;;;;;;;5106237;28;21353;-73
2022/03/16 02:17:17;;;;;;;;;;;;;;;;;;5115751;27;19926;-72
2022/03/16 02:19:42;;;;;;;;;;;;;;;;;;5116131;28;20419;-72
2022/03/16 02:22:08;;;;;;;;;;;;;;;;;;5115885;28;19942;-72
2022/03/16 02:24:34;;;;;;;;;;;;;;;;;;5115335;28;19923;-72
2022/03/16 02:26:59;;;;;;;;;;;;;;;;;;5113977;28;20385;-72
2022/03/16 02:29:24;;;;;;;;;;;;;;;;;;5107201;28;19942;-72
2022/03/16 02:31:50;;;;;;;;;;;;;;;;;;5110439;28;20010;-72
2022/03/16 02:34:15;;;;;;;;;;;;;;;;;;5115828;28;19916;-72
2022/03/16 02:36:40;;;;;;;;;;;;;;;;;;5115541;28;20295;-72
2022/03/16 02:39:06;;;;;;;;;;;;;;;;;;5114699;28;19915;-72
2022/03/16 02:41:31;;;;;;;;;;;;;;;;;;5115418;28;20055;-72
2022/03/16 02:43:57;;;;;;;;;;;;;;;;;;5115607;28;20369;-72
2022/03/16 02:46:22;;;;;;;;;;;;;;;;;;5114320;28;19915;-72
2022/03/16 02:48:48;;;;;;;;;;;;;;;;;;5115710;28;19966;-72
2022/03/16 02:51:13;;;;;;;;;;;;;;;;;;5115420;28;19915;-72
2022/03/16 02:53:39;;;;;;;;;;;;;;;;;;5115172;28;20329;-72
2022/03/16 02:56:04;;;;;;;;;;;;;;;;;;5108508;28;20377;-72
2022/03/16 02:58:29;;;;;;;;;;;;;;;;;;5098998;28;19984;-72
2022/03/16 03:00:55;;;;;;;;;;;;;;;;;;5094943;28;20340;-72
2022/03/16 03:03:20;;;;;;;;;;;;;;;;;;5094827;28;20375;-72
2022/03/16 03:05:46;;;;;;;;;;;;;;;;;;5094758;28;19963;-72
2022/03/16 03:08:11;;;;;;;;;;;;;;;;;;5094962;28;19916;-72
2022/03/16 03:10:36;;;;;;;;;;;;;;;;;;5094822;28;19915;-72
2022/03/16 03:13:02;;;;;;;;;;;;;;;;;;5093506;28;19968;-72
2022/03/16 03:15:27;;;;;;;;;;;;;;;;;;5111078;28;19945;-72
2022/03/16 03:17:52;;;;;;;;;;;;;;;;;;5114521;28;19916;-71
2022/03/16 03:20:18;;;;;;;;;;;;;;;;;;5114828;28;19916;-72
2022/03/16 03:22:44;;;;;;;;;;;;;;;;;;5113610;28;19923;-72
2022/03/16 03:25:10;;;;;;;;;;;;;;;;;;5113242;28;19920;-72
2022/03/16 03:27:35;;;;;;;;;;;;;;;;;;5114546;28;19919;-71
2022/03/16 03:30:01;;;;;;;;;;;;;;;;;;5114360;28;19933;-72
2022/03/16 03:32:27;;;;;;;;;;;;;;;;;;5114557;28;19945;-72
2022/03/16 03:34:53;;;;;;;;;;;;;;;;;;5114469;28;19923;-72
2022/03/16 03:37:18;;;;;;;;;;;;;;;;;;5113464;28;19916;-72
2022/03/16 03:39:44;;;;;;;;;;;;;;;;;;5113472;28;20275;-71
2022/03/16 03:42:10;;;;;;;;;;;;;;;;;;5112006;28;19915;-72
2022/03/16 03:44:38;;;;;;;;;;;;;;;;;;5114633;28;19920;-72
2022/03/16 03:47:05;;;;;;;;;;;;;;;;;;5112431;28;19916;-72
2022/03/16 03:49:31;;;;;;;;;;;;;;;;;;5114249;28;19967;-72
2022/03/16 03:51:57;;;;;;;;;;;;;;;;;;5113293;28;20046;-72
2022/03/16 03:54:22;;;;;;;;;;;;;;;;;;5113661;28;20014;-72
2022/03/16 03:56:47;;;;;;;;;;;;;;;;;;5112896;28;19916;-72
2022/03/16 03:59:13;;;;;;;;;;;;;;;;;;5114258;28;19939;-72
2022/03/16 04:01:38;;;;;;;;;;;;;;;;;;5113979;28;20369;-72
2022/03/16 04:04:03;;;;;;;;;;;;;;;;;;5113953;27;20019;-72
2022/03/16 04:06:29;;;;;;;;;;;;;;;;;;5114104;28;19969;-72
2022/03/16 04:08:54;;;;;;;;;;;;;;;;;;5114183;28;20300;-72
2022/03/16 04:11:19;;;;;;;;;;;;;;;;;;5114157;28;19920;-72
2022/03/16 04:13:44;;;;;;;;;;;;;;;;;;5113174;28;19927;-72
2022/03/16 04:16:10;;;;;;;;;;;;;;;;;;5113692;28;19916;-72
2022/03/16 04:18:35;;;;;;;;;;;;;;;;;;5114066;28;19935;-72
2022/03/16 04:21:00;;;;;;;;;;;;;;;;;;5111983;28;19916;-72
2022/03/16 04:23:26;;;;;;;;;;;;;;;;;;5114049;28;19916;-72
2022/03/16 04:25:51;;;;;;;;;;;;;;;;;;5113514;28;19912;-72
2022/03/16 04:28:16;;;;;;;;;;;;;;;;;;5112836;28;20377;-72
2022/03/16 04:30:42;;;;;;;;;;;;;;;;;;5113262;28;20353;-72
2022/03/16 04:33:07;;;;;;;;;;;;;;;;;;5113444;28;20019;-72
2022/03/16 04:35:32;;;;;;;;;;;;;;;;;;5113993;28;19947;-72
2022/03/16 04:37:58;;;;;;;;;;;;;;;;;;5113588;28;19923;-72
2022/03/16 04:40:23;;;;;;;;;;;;;;;;;;5114082;28;19958;-72
2022/03/16 04:42:48;;;;;;;;;;;;;;;;;;5111428;28;20016;-72
2022/03/16 04:45:14;;;;;;;;;;;;;;;;;;5113868;28;19916;-72
2022/03/16 04:47:39;;;;;;;;;;;;;;;;;;5114834;28;19916;-72
2022/03/16 04:50:05;;;;;;;;;;;;;;;;;;5117768;28;20437;-71
2022/03/16 04:52:31;;;;;;;;;;;;;;;;;;5117666;27;19972;-72
2022/03/16 04:54:56;;;;;;;;;;;;;;;;;;5117826;28;19920;-72
2022/03/16 04:57:21;;;;;;;;;;;;;;;;;;5117052;28;20422;-73
2022/03/16 04:59:47;;;;;;;;;;;;;;;;;;5117609;28;20292;-72
2022/03/16 05:02:12;;;;;;;;;;;;;;;;;;5116961;28;20335;-72
2022/03/16 05:04:37;;;;;;;;;;;;;;;;;;5117503;28;19920;-72
2022/03/16 05:07:03;;;;;;;;;;;;;;;;;;5117577;28;19994;-71
2022/03/16 05:09:28;;;;;;;;;;;;;;;;;;5116330;28;19916;-72
2022/03/16 05:11:53;;;;;;;;;;;;;;;;;;5117379;28;20426;-72
2022/03/16 05:14:18;;;;;;;;;;;;;;;;;;5115700;28;19923;-72
2022/03/16 05:16:44;;;;;;;;;;;;;;;;;;5117478;28;19915;-72
2022/03/16 05:19:09;;;;;;;;;;;;;;;;;;5116037;28;20292;-72
2022/03/16 05:21:34;;;;;;;;;;;;;;;;;;5117210;28;20269;-72
2022/03/16 05:23:59;;;;;;;;;;;;;;;;;;5117093;28;19947;-72
2022/03/16 05:26:25;;;;;;;;;;;;;;;;;;5117115;28;19916;-72
2022/03/16 05:28:52;;;;;;;;;;;;;;;;;;5116808;28;20427;-72
2022/03/16 05:31:19;;;;;;;;;;;;;;;;;;5116623;28;19924;-72
2022/03/16 05:33:44;;;;;;;;;;;;;;;;;;5116896;27;19920;-72
2022/03/16 05:36:09;;;;;;;;;;;;;;;;;;5117045;28;19961;-72
2022/03/16 05:38:34;;;;;;;;;;;;;;;;;;5116848;28;20362;-72
2022/03/16 05:41:00;;;;;;;;;;;;;;;;;;5115699;28;19920;-72
2022/03/16 05:43:25;;;;;;;;;;;;;;;;;;5115526;28;20018;-72
2022/03/16 05:45:50;;;;;;;;;;;;;;;;;;5116220;28;19916;-72
2022/03/16 05:48:16;;;;;;;;;;;;;;;;;;5116239;28;19922;-72
2022/03/16 05:50:45;;;;;;;;;;;;;;;;;;5097850;28;19931;-72
2022/03/16 05:53:10;;;;;;;;;;;;;;;;;;5116152;28;19920;-72
2022/03/16 05:55:36;;;;;;;;;;;;;;;;;;5116507;28;19920;-73
2022/03/16 05:58:01;;;;;;;;;;;;;;;;;;5116633;28;20352;-72
2022/03/16 06:00:27;;;;;;;;;;;;;;;;;;5115942;28;19923;-72
2022/03/16 06:02:52;;;;;;;;;;;;;;;;;;5116044;27;19919;-72
2022/03/16 06:05:18;;;;;;;;;;;;;;;;;;5116387;28;20408;-73
2022/03/16 06:07:43;;;;;;;;;;;;;;;;;;5116197;28;19927;-73
2022/03/16 06:10:10;;;;;;;;;;;;;;;;;;5114997;28;19923;-73
2022/03/16 06:12:54;;;;;;;;;;;;;;;;;;5115046;28;19916;-72
2022/03/16 06:15:19;;;;;;;;;;;;;;;;;;5116655;28;19941;-72
2022/03/16 06:17:44;;;;;;;;;;;;;;;;;;5116549;28;19912;-72
2022/03/16 06:20:10;;;;;;;;;;;;;;;;;;5115489;27;19923;-72
2022/03/16 06:22:35;;;;;;;;;;;;;;;;;;5115910;28;19924;-72
2022/03/16 06:25:00;;;;;;;;;;;;;;;;;;5116398;28;19916;-73
2022/03/16 06:27:26;;;;;;;;;;;;;;;;;;5115928;28;19955;-74
2022/03/16 06:29:52;;;;;;;;;;;;;;;;;;5116025;28;19932;-74
2022/03/16 06:32:18;;;;;;;;;;;;;;;;;;5115307;27;19924;-74
2022/03/16 06:34:43;;;;;;;;;;;;;;;;;;5114154;28;19938;-74
2022/03/16 06:37:09;;;;;;;;;;;;;;;;;;5115742;28;19915;-74
2022/03/16 06:39:34;;;;;;;;;;;;;;;;;;5115722;28;19923;-74
2022/03/16 06:41:59;;;;;;;;;;;;;;;;;;5113288;28;19999;-74
2022/03/16 06:44:24;;;;;;;;;;;;;;;;;;5115284;28;19916;-73
2022/03/16 06:46:51;;;;;;;;;;;;;;;;;;5115786;28;20310;-73
2022/03/16 06:49:16;;;;;;;;;;;;;;;;;;5120862;27;19991;-72
2022/03/16 06:51:41;;;;;;;;;;;;;;;;;;5136053;27;19953;-74
2022/03/16 06:54:06;;;;;;;;;;;;;;;;;;5134737;27;20063;-74
2022/03/16 06:56:32;;;;;;;;;;;;;;;;;;5134770;27;20017;-74
2022/03/16 06:58:57;;;;;;;;;;;;;;;;;;5136034;27;20062;-74
2022/03/16 07:01:22;;;;;;;;;;;;;;;;;;5136056;27;19916;-73
2022/03/16 07:03:48;;;;;;;;;;;;;;;;;;5135216;27;20010;-73
2022/03/16 07:06:13;;;;;;;;;;;;;;;;;;5135681;27;19984;-73
2022/03/16 07:08:38;;;;;;;;;;;;;;;;;;5135624;27;19925;-73
2022/03/16 07:11:03;;;;;;;;;;;;;;;;;;5134719;27;20006;-74
2022/03/16 07:13:29;;;;;;;;;;;;;;;;;;5123979;27;19926;-73
2022/03/16 07:15:54;;;;;;;;;;;;;;;;;;5115001;28;19924;-73
2022/03/16 07:18:20;;;;;;;;;;;;;;;;;;5113741;28;19915;-73
2022/03/16 07:20:47;;;;;;;;;;;;;;;;;;5114556;28;19923;-74
2022/03/16 07:23:13;;;;;;;;;;;;;;;;;;5094166;28;19923;-74
2022/03/16 07:25:42;;;;;;;;;;;;;;;;;;5094475;28;19923;-74
2022/03/16 07:28:09;;;;;;;;;;;;;;;;;;5094554;28;19923;-75
2022/03/16 07:30:35;;;;;;;;;;;;;;;;;;5093137;28;19916;-73
2022/03/16 07:33:02;;;;;;;;;;;;;;;;;;5095802;28;19924;-73
2022/03/16 07:35:27;;;;;;;;;;;;;;;;;;5114672;28;20018;-74
2022/03/16 07:37:56;;;;;;;;;;;;;;;;;;5101751;28;20018;-73
2022/03/16 07:40:22;;;;;;;;;;;;;;;;;;5094329;28;19969;-73
2022/03/16 07:42:48;;;;;;;;;;;;;;;;;;5109960;28;19919;-73
2022/03/16 07:45:15;;;;;;;;;;;;;;;;;;5099964;28;19912;-72
2022/03/16 07:47:41;;;;;;;;;;;;;;;;;;5107857;28;20023;-73
2022/03/16 07:50:08;;;;;;;;;;;;;;;;;;5114449;28;19932;-73
2022/03/16 07:52:33;;;;;;;;;;;;;;;;;;5113233;28;20373;-73
2022/03/16 07:54:58;;;;;;;;;;;;;;;;;;5114349;28;19922;-73
2022/03/16 07:57:25;;;;;;;;;;;;;;;;;;5114522;28;19918;-74
2022/03/16 07:59:51;;;;;;;;;;;;;;;;;;5108622;28;19923;-73
2022/03/16 08:02:16;;;;;;;;;;;;;;;;;;5102909;28;19916;-73
2022/03/16 08:04:42;;;;;;;;;;;;;;;;;;5103085;28;19984;-73
2022/03/16 08:07:09;;;;;;;;;;;;;;;;;;5102136;28;19927;-73
2022/03/16 08:09:35;;;;;;;;;;;;;;;;;;5104512;28;19916;-74
2022/03/16 08:12:00;;;;;;;;;;;;;;;;;;5107498;28;19916;-74
2022/03/16 08:14:25;;;;;;;;;;;;;;;;;;5112860;28;19923;-73
2022/03/16 08:16:51;;;;;;;;;;;;;;;;;;5095160;28;19922;-73
2022/03/16 08:19:16;;;;;;;;;;;;;;;;;;5114064;27;19984;-74
2022/03/16 08:21:42;;;;;;;;;;;;;;;;;;5112946;28;19924;-74
2022/03/16 08:24:07;;;;;;;;;;;;;;;;;;5115210;28;19994;-74
2022/03/16 08:26:32;;;;;;;;;;;;;;;;;;5116959;28;19965;-73
2022/03/16 08:28:59;;;;;;;;;;;;;;;;;;5107747;28;19920;-73
2022/03/16 08:31:24;;;;;;;;;;;;;;;;;;5099603;28;20693;-75
2022/03/16 08:33:50;;;;;;;;;;;;;;;;;;5118105;28;19958;-71
2022/03/16 08:36:15;;;;;;;;;;;;;;;;;;5117019;28;19915;-71
2022/03/16 08:38:41;;;;;;;;;;;;;;;;;;5110350;28;20327;-71
2022/03/16 08:41:07;;;;;;;;;;;;;;;;;;5097645;28;19923;-72
2022/03/16 08:43:33;;;;;;;;;;;;;;;;;;5115053;28;20345;-72
2022/03/16 08:45:59;;;;;;;;;;;;;;;;;;5116639;28;19961;-72
2022/03/16 08:48:24;;;;;;;;;;;;;;;;;;5116951;28;20308;-71
2022/03/16 08:50:49;;;;;;;;;;;;;;;;;;5117800;28;20437;-74
2022/03/16 08:53:15;;;;;;;;;;;;;;;;;;5115346;27;20393;-72
2022/03/16 08:55:40;;;;;;;;;;;;;;;;;;5121081;27;19923;-73
2022/03/16 08:58:05;;;;;;;;;;;;;;;;;;5112199;27;19988;-73
2022/03/16 09:00:37;;;;;;;;;;;;;;;;;;5111777;27;20281;-74
2022/03/16 09:03:03;;;;;;;;;;;;;;;;;;5111693;27;20385;-75
2022/03/16 09:05:28;;;;;;;;;;;;;;;;;;5117470;27;19916;-74
2022/03/16 09:07:53;;;;;;;;;;;;;;;;;;5117644;28;19967;-74
2022/03/16 09:10:18;;;;;;;;;;;;;;;;;;5117505;28;20323;-74
2022/03/16 09:12:44;;;;;;;;;;;;;;;;;;5114971;28;20266;-74
2022/03/16 09:15:10;;;;;;;;;;;;;;;;;;5117311;28;19915;-73
2022/03/16 09:17:35;;;;;;;;;;;;;;;;;;5117106;28;19916;-74
2022/03/16 09:20:01;;;;;;;;;;;;;;;;;;5117472;28;19916;-74
2022/03/16 09:22:26;;;;;;;;;;;;;;;;;;5115486;28;19947;-74
2022/03/16 09:24:52;;;;;;;;;;;;;;;;;;5117201;28;19958;-74
2022/03/16 09:27:17;;;;;;;;;;;;;;;;;;5117011;28;19926;-75
2022/03/16 09:29:46;;;;;;;;;;;;;;;;;;5117068;28;19937;-74
2022/03/16 09:32:11;;;;;;;;;;;;;;;;;;5115562;28;19978;-74
2022/03/16 09:34:37;;;;;;;;;;;;;;;;;;5115749;28;19963;-75
2022/03/16 09:37:03;;;;;;;;;;;;;;;;;;5115690;28;19916;-74
2022/03/16 09:39:28;;;;;;;;;;;;;;;;;;5116930;28;19943;-75
2022/03/16 09:41:55;;;;;;;;;;;;;;;;;;5116821;28;19916;-74
2022/03/16 09:44:22;;;;;;;;;;;;;;;;;;5116554;28;20012;-74
2022/03/16 09:46:50;;;;;;;;;;;;;;;;;;5116576;28;19939;-74
2022/03/16 09:49:15;;;;;;;;;;;;;;;;;;5116449;28;20346;-74
2022/03/16 09:51:41;;;;;;;;;;;;;;;;;;5116193;28;20022;-72
2022/03/16 09:54:07;;;;;;;;;;;;;;;;;;5115963;28;19920;-72
2022/03/16 09:56:35;;;;;;;;;;;;;;;;;;5116475;28;19916;-73
2022/03/16 09:59:00;;;;;;;;;;;;;;;;;;5115322;28;19916;-72
2022/03/16 10:01:26;;;;;;;;;;;;;;;;;;5116537;28;20265;-73
2022/03/16 10:03:52;;;;;;;;;;;;;;;;;;5116472;28;20362;-73
2022/03/16 10:06:21;;;;;;;;;;;;;;;;;;5116407;28;19920;-73
2022/03/16 10:13:13;;;;;;;;;;;;;;;;;;5115777;28;19920;-73
2022/03/16 10:14:16;;;;;;;;;;;;;;;;;;5114685;28;19919;-73
2022/03/16 10:20:04;;;;;;;;;;;;;;;;;;5073055;28;19956;-74
2022/03/16 10:22:37;;;;;;;;;;;;;;;;;;5055399;28;20077;-73
2022/03/16 10:25:04;;;;;;;;;;;;;;;;;;5092923;28;19916;-73
2022/03/16 10:27:30;;;;;;;;;;;;;;;;;;5115867;27;20430;-73
2022/03/16 10:29:56;;;;;;;;;;;;;;;;;;5115953;28;20019;-73
2022/03/16 10:32:22;;;;;;;;;;;;;;;;;;5115692;28;19920;-73
2022/03/16 10:34:51;;;;;;;;;;;;;;;;;;5115685;28;20392;-73
2022/03/16 10:37:19;;;;;;;;;;;;;;;;;;5115488;27;20061;-73
2022/03/16 10:39:46;;;;;;;;;;;;;;;;;;5114320;28;19915;-73
2022/03/16 10:47:56;;;;;;;;;;;;;;;;;;5114378;28;19922;-74
2022/03/16 10:50:21;;;;;;;;;;;;;;;;;;5115590;28;19915;-72
2022/03/16 10:52:47;;;;;;;;;;;;;;;;;;5115485;28;19920;-72
2022/03/16 10:55:13;;;;;;;;;;;;;;;;;;5115240;28;19916;-73
2022/03/16 10:57:38;;;;;;;;;;;;;;;;;;5115202;28;19951;-73
2022/03/16 11:00:04;;;;;;;;;;;;;;;;;;5115288;28;20010;-73
2022/03/16 11:02:34;;;;;;;;;;;;;;;;;;5114952;28;20270;-73
2022/03/16 11:04:59;;;;;;;;;;;;;;;;;;5115284;28;20342;-73
2022/03/16 11:07:24;;;;;;;;;;;;;;;;;;5113875;28;19916;-73
2022/03/16 11:09:51;;;;;;;;;;;;;;;;;;5113858;28;19919;-74
2022/03/16 11:15:05;;;;;;;;;;;;;;;;;;5113920;28;19962;-73
2022/03/16 11:17:31;;;;;;;;;;;;;;;;;;5115083;27;19970;-73
2022/03/16 11:19:56;;;;;;;;;;;;;;;;;;5114990;28;20430;-72
2022/03/16 11:22:24;;;;;;;;;;;;;;;;;;5114876;28;19919;-72
2022/03/16 11:24:58;;;;;;;;;;;;;;;;;;5113394;28;19916;-72
2022/03/16 11:27:23;;;;;;;;;;;;;;;;;;5114783;28;19966;-73
2022/03/16 11:29:58;;;;;;;;;;;;;;;;;;5115031;28;19955;-73
2022/03/16 11:32:24;;;;;;;;;;;;;;;;;;5114421;28;19920;-73
2022/03/16 11:34:58;;;;;;;;;;;;;;;;;;5113414;28;19916;-73
2022/03/16 11:37:50;;;;;;;;;;;;;;;;;;5114599;28;20377;-73
2022/03/16 11:40:16;;;;;;;;;;;;;;;;;;5111304;28;19915;-73
2022/03/16 11:43:04;;;;;;;;;;;;;;;;;;5114494;28;19916;-73
2022/03/16 11:45:38;;;;;;;;;;;;;;;;;;5114223;28;19915;-73
2022/03/16 11:48:22;;;;;;;;;;;;;;;;;;5113216;28;20385;-73
2022/03/16 11:51:07;;;;;;;;;;;;;;;;;;5114551;28;19965;-73
2022/03/16 11:53:58;;;;;;;;;;;;;;;;;;5113987;28;20006;-73
2022/03/16 11:56:24;;;;;;;;;;;;;;;;;;5112849;28;20387;-73
2022/03/16 11:58:54;;;;;;;;;;;;;;;;;;5113405;28;19984;-72
2022/03/16 12:01:23;;;;;;;;;;;;;;;;;;5114391;28;19961;-74
2022/03/16 12:03:52;;;;;;;;;;;;;;;;;;5114200;28;20281;-72
2022/03/16 12:06:19;;;;;;;;;;;;;;;;;;5113062;28;19967;-73
2022/03/16 12:08:58;;;;;;;;;;;;;;;;;;5114105;28;19923;-73
2022/03/16 12:14:08;;;;;;;;;;;;;;;;;;5113025;28;19920;-73
2022/03/16 12:16:42;;;;;;;;;;;;;;;;;;5114126;28;19961;-73
2022/03/16 12:19:32;;;;;;;;;;;;;;;;;;5112980;28;19919;-73
2022/03/16 12:21:57;;;;;;;;;;;;;;;;;;5113928;28;20383;-73
2022/03/16 12:30:04;;;;;;;;;;;;;;;;;;5112543;28;19923;-72
2022/03/16 12:32:34;;;;;;;;;;;;;;;;;;5113601;28;19920;-72
2022/03/16 12:35:01;;;;;;;;;;;;;;;;;;5113775;28;19915;-72
2022/03/16 12:37:26;;;;;;;;;;;;;;;;;;5111601;28;19915;-72
2022/03/16 12:39:55;;;;;;;;;;;;;;;;;;5112646;28;19922;-73
2022/03/16 12:42:31;;;;;;;;;;;;;;;;;;5113863;28;20369;-72
2022/03/16 12:45:04;;;;;;;;;;;;;;;;;;5114035;28;20010;-73
2022/03/16 12:47:38;;;;;;;;;;;;;;;;;;5113871;28;19916;-73
2022/03/16 12:50:09;;;;;;;;;;;;;;;;;;5112562;28;20042;-73
2022/03/16 12:52:34;;;;;;;;;;;;;;;;;;5113755;28;20354;-73
2022/03/16 12:55:01;;;;;;;;;;;;;;;;;;5113934;28;19922;-72
2022/03/16 12:57:27;;;;;;;;;;;;;;;;;;5113706;28;19915;-74
2022/03/16 12:59:55;;;;;;;;;;;;;;;;;;5113844;28;20327;-72
2022/03/16 13:02:25;;;;;;;;;;;;;;;;;;5113652;28;19923;-72
2022/03/16 13:04:56;;;;;;;;;;;;;;;;;;5113404;28;19923;-72
2022/03/16 13:07:21;;;;;;;;;;;;;;;;;;5113371;28;19916;-72
2022/03/16 13:09:47;;;;;;;;;;;;;;;;;;5116414;28;19943;-72
2022/03/16 13:12:12;;;;;;;;;;;;;;;;;;5117390;28;19965;-72
2022/03/16 13:14:44;;;;;;;;;;;;;;;;;;5116635;28;19951;-72
2022/03/16 13:17:12;;;;;;;;;;;;;;;;;;5117296;28;19941;-72
2022/03/16 13:19:38;;;;;;;;;;;;;;;;;;5116250;28;19928;-72
2022/03/16 13:22:09;;;;;;;;;;;;;;;;;;5116621;28;20112;-72
2022/03/16 13:24:38;;;;;;;;;;;;;;;;;;5116342;28;20308;-72
2022/03/16 13:27:15;;;;;;;;;;;;;;;;;;5116346;28;20023;-72
2022/03/16 13:29:44;;;;;;;;;;;;;;;;;;5115862;28;19920;-72
2022/03/16 13:32:10;;;;;;;;;;;;;;;;;;5115673;28;19919;-72
2022/03/16 13:34:36;;;;;;;;;;;;;;;;;;5116897;28;20295;-72
2022/03/16 13:37:02;;;;;;;;;;;;;;;;;;5117029;27;19915;-72
2022/03/16 13:39:30;;;;;;;;;;;;;;;;;;5117105;27;19920;-72
2022/03/16 13:42:04;;;;;;;;;;;;;;;;;;5115738;28;19923;-72
2022/03/16 13:44:37;;;;;;;;;;;;;;;;;;5115636;28;19919;-72
2022/03/16 13:47:04;;;;;;;;;;;;;;;;;;5116837;28;19922;-72
2022/03/16 13:49:34;;;;;;;;;;;;;;;;;;5116803;28;19916;-72
2022/03/16 13:52:06;;;;;;;;;;;;;;;;;;5115386;28;19923;-72
2022/03/16 13:54:32;;;;;;;;;;;;;;;;;;5115720;28;19920;-72
2022/03/16 13:57:26;;;;;;;;;;;;;;;;;;5115437;27;19919;-73
2022/03/16 14:00:12;;;;;;;;;;;;;;;;;;5102207;28;20274;-72
2022/03/16 14:02:39;;;;;;;;;;;;;;;;;;5116032;28;20011;-72
2022/03/16 14:05:06;;;;;;;;;;;;;;;;;;5115652;28;19915;-72
2022/03/16 14:07:34;;;;;;;;;;;;;;;;;;5115341;28;19916;-72
2022/03/16 14:10:00;;;;;;;;;;;;;;;;;;5116454;28;19922;-72
2022/03/16 14:12:30;;;;;;;;;;;;;;;;;;5115952;28;19922;-72
2022/03/16 14:15:05;;;;;;;;;;;;;;;;;;5115162;28;20370;-72
2022/03/16 14:17:48;;;;;;;;;;;;;;;;;;5116296;28;19927;-73
2022/03/16 14:20:19;;;;;;;;;;;;;;;;;;5115592;28;20018;-72
2022/03/16 14:22:52;;;;;;;;;;;;;;;;;;5116287;28;19916;-72
2022/03/16 14:25:22;;;;;;;;;;;;;;;;;;5115364;28;19926;-72
2022/03/16 14:27:48;;;;;;;;;;;;;;;;;;5115923;28;20014;-72
2022/03/16 14:30:14;;;;;;;;;;;;;;;;;;5115701;28;19923;-72
2022/03/16 14:32:39;;;;;;;;;;;;;;;;;;5115488;28;19919;-72
2022/03/16 14:35:05;;;;;;;;;;;;;;;;;;5115923;28;19923;-72
2022/03/16 14:37:30;;;;;;;;;;;;;;;;;;5115626;28;20772;-72
2022/03/16 14:39:56;;;;;;;;;;;;;;;;;;5115126;27;20011;-72
2022/03/16 14:42:24;;;;;;;;;;;;;;;;;;5115637;28;19932;-72
2022/03/16 14:44:49;;;;;;;;;;;;;;;;;;5114495;27;19915;-72
2022/03/16 14:47:15;;;;;;;;;;;;;;;;;;5115556;28;20354;-72
2022/03/16 14:49:40;;;;;;;;;;;;;;;;;;5115807;28;19916;-72
2022/03/16 14:52:06;;;;;;;;;;;;;;;;;;5114261;28;19941;-72
2022/03/16 14:54:31;;;;;;;;;;;;;;;;;;5115607;28;20014;-72
2022/03/16 14:56:57;;;;;;;;;;;;;;;;;;5113006;28;20393;-72
2022/03/16 14:59:22;;;;;;;;;;;;;;;;;;5115120;28;19920;-73
2022/03/16 15:01:48;;;;;;;;;;;;;;;;;;5115367;28;19962;-72
2022/03/16 15:04:13;;;;;;;;;;;;;;;;;;5115277;28;20390;-72
2022/03/16 15:06:38;;;;;;;;;;;;;;;;;;5113947;28;19922;-72
2022/03/16 15:09:04;;;;;;;;;;;;;;;;;;5115292;28;19911;-72
2022/03/16 15:11:29;;;;;;;;;;;;;;;;;;5113930;28;19922;-72
2022/03/16 15:13:55;;;;;;;;;;;;;;;;;;5114913;28;20387;-72
2022/03/16 15:16:24;;;;;;;;;;;;;;;;;;5114996;28;19922;-72
2022/03/16 15:18:50;;;;;;;;;;;;;;;;;;5115157;28;19916;-71
2022/03/16 15:21:15;;;;;;;;;;;;;;;;;;5114910;28;19938;-72
2022/03/16 15:23:41;;;;;;;;;;;;;;;;;;5113740;28;19916;-71
2022/03/16 15:26:06;;;;;;;;;;;;;;;;;;5114945;28;19923;-71
2022/03/16 15:28:32;;;;;;;;;;;;;;;;;;5114709;28;19915;-72
2022/03/16 15:30:58;;;;;;;;;;;;;;;;;;5114591;28;20010;-72
2022/03/16 15:33:23;;;;;;;;;;;;;;;;;;5113708;28;20319;-71
2022/03/16 15:35:48;;;;;;;;;;;;;;;;;;5114534;28;19923;-72
2022/03/16 15:38:13;;;;;;;;;;;;;;;;;;5114416;28;19916;-71
2022/03/16 15:43:24;;;;;;;;;;;;;;;;;;5113213;28;19962;-71
2022/03/16 15:45:49;;;;;;;;;;;;;;;;;;5114682;28;19963;-72
2022/03/16 15:48:16;;;;;;;;;;;;;;;;;;5114655;28;19966;-71
2022/03/16 15:50:41;;;;;;;;;;;;;;;;;;5114642;28;19915;-71
2022/03/16 15:53:06;;;;;;;;;;;;;;;;;;5114129;28;20285;-72
2022/03/16 15:55:32;;;;;;;;;;;;;;;;;;5114543;28;20273;-71
2022/03/16 15:57:57;;;;;;;;;;;;;;;;;;5113875;28;19915;-73
2022/03/16 16:00:22;;;;;;;;;;;;;;;;;;5114456;28;19930;-72
2022/03/16 16:02:50;;;;;;;;;;;;;;;;;;5114286;28;20083;-71
2022/03/16 16:05:17;;;;;;;;;;;;;;;;;;5114273;28;19923;-71
2022/03/16 16:07:42;;;;;;;;;;;;;;;;;;5114166;28;19911;-71
2022/03/16 16:10:12;;;;;;;;;;;;;;;;;;5114303;28;19923;-72
2022/03/16 16:12:41;;;;;;;;;;;;;;;;;;5114185;28;20343;-71
2022/03/16 16:15:10;;;;;;;;;;;;;;;;;;5112959;28;19915;-72
2022/03/16 16:17:36;;;;;;;;;;;;;;;;;;5113860;28;20000;-71
2022/03/16 16:20:05;;;;;;;;;;;;;;;;;;5113633;28;19984;-72
2022/03/16 16:22:30;;;;;;;;;;;;;;;;;;5113805;28;19920;-74
2022/03/16 16:24:55;;;;;;;;;;;;;;;;;;5113235;28;20266;-72
2022/03/16 16:27:20;;;;;;;;;;;;;;;;;;5113994;28;19916;-72
2022/03/16 16:29:46;;;;;;;;;;;;;;;;;;5114101;28;19916;-72
2022/03/16 16:32:12;;;;;;;;;;;;;;;;;;5113666;28;19959;-72
2022/03/16 16:34:37;;;;;;;;;;;;;;;;;;5113072;28;19945;-72
2022/03/16 16:37:02;;;;;;;;;;;;;;;;;;5113908;28;19920;-72
2022/03/16 16:39:28;;;;;;;;;;;;;;;;;;5112739;28;20277;-72
2022/03/16 16:41:54;;;;;;;;;;;;;;;;;;5112449;28;19915;-72
2022/03/16 16:44:20;;;;;;;;;;;;;;;;;;5115545;28;19916;-74
2022/03/16 16:46:46;;;;;;;;;;;;;;;;;;5116686;28;19961;-72
2022/03/16 16:49:11;;;;;;;;;;;;;;;;;;5117027;28;19912;-72
2022/03/16 16:51:37;;;;;;;;;;;;;;;;;;5116159;28;20022;-72
2022/03/16 16:54:02;;;;;;;;;;;;;;;;;;5117577;28;19923;-73
2022/03/16 16:56:27;;;;;;;;;;;;;;;;;;5117778;28;19923;-72
2022/03/16 16:58:55;;;;;;;;;;;;;;;;;;5117428;28;19920;-72
2022/03/16 17:01:21;;;;;;;;;;;;;;;;;;5117843;27;19922;-72
2022/03/16 17:03:46;;;;;;;;;;;;;;;;;;5117521;28;19915;-72
2022/03/16 17:06:12;;;;;;;;;;;;;;;;;;5117642;28;19915;-73
2022/03/16 17:08:41;;;;;;;;;;;;;;;;;;5117451;28;19915;-74